createdAt,value
2023-06-06T00:00:12.657Z,100959.97
2023-06-06T00:02:42.344Z,100960.34
2023-06-06T00:05:09.762Z,100965.59
2023-06-06T00:07:36.363Z,100969.56
2023-06-06T00:10:06.156Z,100965.34
2023-06-06T00:12:33.365Z,100963.06
2023-06-06T00:15:04.380Z,100956.59
2023-06-06T00:17:31.415Z,100963.72
2023-06-06T00:19:59.258Z,100963.34
2023-06-06T00:22:26.008Z,100961.91
2023-06-06T00:24:55.766Z,100965.47
2023-06-06T00:27:22.364Z,100958.53
2023-06-06T00:29:49.005Z,100964.81
2023-06-06T00:32:15.731Z,100956.19
2023-06-06T00:34:42.419Z,100949.72
2023-06-06T00:37:09.029Z,100953.28
2023-06-06T00:39:35.782Z,100945.75
2023-06-06T00:42:02.431Z,100940.25
2023-06-06T00:44:29.095Z,100953.28
2023-06-06T00:46:55.938Z,100942.56
2023-06-06T00:49:23.919Z,100943.16
2023-06-06T00:51:50.932Z,100941.69
2023-06-06T00:54:19.869Z,100942.97
2023-06-06T00:56:48.673Z,100941.94
2023-06-06T00:59:17.092Z,100942.56
2023-06-06T01:01:44.335Z,100935.03
2023-06-06T01:04:11.341Z,100933.75
2023-06-06T01:06:38.456Z,100943.22
2023-06-06T01:09:07.223Z,100944.44
2023-06-06T01:12:11.015Z,100933.75
2023-06-06T01:14:46.547Z,100931.03
2023-06-06T01:17:14.366Z,100931.22
2023-06-06T01:19:42.438Z,100925.13
2023-06-06T01:22:14.261Z,100934.81
2023-06-06T01:24:45.710Z,100915.47
2023-06-06T01:27:12.329Z,100933.50
2023-06-06T01:29:38.971Z,100927.41
2023-06-06T01:32:37.313Z,100928.84
2023-06-06T01:35:04.026Z,100925.44
2023-06-06T01:38:00.860Z,100925.81
2023-06-06T01:40:31.675Z,100918.03
2023-06-06T01:42:58.403Z,100920.78
2023-06-06T01:45:29.368Z,100919.63
2023-06-06T01:47:56.355Z,100922.84
2023-06-06T01:50:23.329Z,100916.09
2023-06-06T01:52:53.294Z,100918.16
2023-06-06T01:55:20.006Z,100916.28
2023-06-06T01:57:46.633Z,100915.63
2023-06-06T02:00:13.764Z,100907.22
2023-06-06T02:02:41.148Z,100907.41
2023-06-06T02:05:08.098Z,100909.47
2023-06-06T02:07:36.009Z,100911.34
2023-06-06T02:10:03.489Z,100915.94
2023-06-06T02:12:30.166Z,100909.00
2023-06-06T02:14:57.077Z,100918.78
2023-06-06T02:17:26.533Z,100911.41
2023-06-06T02:20:00.056Z,100918.72
2023-06-06T02:22:26.824Z,100906.44
2023-06-06T02:24:54.333Z,100916.22
2023-06-06T02:27:22.484Z,100913.91
2023-06-06T02:29:49.243Z,100911.75
2023-06-06T02:32:16.225Z,100917.38
2023-06-06T02:34:43.163Z,100906.66
2023-06-06T02:37:09.819Z,100903.28
2023-06-06T02:39:37.001Z,100912.13
2023-06-06T02:42:07.788Z,100899.34
2023-06-06T02:44:35.032Z,100899.09
2023-06-06T02:47:01.728Z,100895.91
2023-06-06T02:49:28.585Z,100900.03
2023-06-06T02:51:56.840Z,100884.88
2023-06-06T02:54:23.668Z,100896.22
2023-06-06T02:56:50.798Z,100899.50
2023-06-06T02:59:17.521Z,100894.59
2023-06-06T03:01:45.871Z,100900.22
2023-06-06T03:04:13.265Z,100907.56
2023-06-06T03:06:43.052Z,100897.59
2023-06-06T03:09:10.866Z,100894.72
2023-06-06T03:11:37.670Z,100892.16
2023-06-06T03:14:04.286Z,100901.16
2023-06-06T03:16:31.705Z,100904.63
2023-06-06T03:18:58.819Z,100899.28
2023-06-06T03:21:25.560Z,100902.22
2023-06-06T03:23:52.369Z,100889.72
2023-06-06T03:26:20.715Z,100891.69
2023-06-06T03:28:47.562Z,100895.81
2023-06-06T03:31:15.258Z,100895.34
2023-06-06T03:33:42.202Z,100894.81
2023-06-06T03:36:09.083Z,100904.06
2023-06-06T03:38:36.022Z,100891.78
2023-06-06T03:41:03.866Z,100897.72
2023-06-06T03:43:31.357Z,100895.00
2023-06-06T03:45:58.345Z,100896.66
2023-06-06T03:48:25.027Z,100891.31
2023-06-06T03:50:51.677Z,100893.94
2023-06-06T03:53:18.351Z,100891.88
2023-06-06T03:55:45.841Z,100891.13
2023-06-06T03:58:15.069Z,100893.50
2023-06-06T04:00:41.969Z,100894.81
2023-06-06T04:03:08.874Z,100898.00
2023-06-06T04:05:36.130Z,100892.16
2023-06-06T04:08:03.100Z,100897.88
2023-06-06T04:10:29.770Z,100879.59
2023-06-06T04:12:56.452Z,100892.25
2023-06-06T04:15:23.368Z,100893.56
2023-06-06T04:17:49.982Z,100888.97
2023-06-06T04:20:16.613Z,100876.88
2023-06-06T04:22:44.397Z,100886.94
2023-06-06T04:25:13.726Z,100888.78
2023-06-06T04:27:45.970Z,100898.59
2023-06-06T04:30:23.526Z,100895.19
2023-06-06T04:32:52.351Z,100898.38
2023-06-06T04:35:19.842Z,100901.31
2023-06-06T04:37:49.152Z,100905.88
2023-06-06T04:40:16.723Z,100911.72
2023-06-06T04:42:43.846Z,100908.38
2023-06-06T04:45:11.441Z,100916.19
2023-06-06T04:47:41.901Z,100916.28
2023-06-06T04:50:09.896Z,100919.31
2023-06-06T04:52:37.114Z,100918.13
2023-06-06T04:55:04.761Z,100921.44
2023-06-06T04:57:31.564Z,100922.09
2023-06-06T04:59:58.264Z,100914.25
2023-06-06T05:02:28.174Z,100918.72
2023-06-06T05:04:57.361Z,100918.69
2023-06-06T05:07:25.376Z,100915.97
2023-06-06T05:09:56.377Z,100927.41
2023-06-06T05:12:23.776Z,100935.03
2023-06-06T05:14:51.439Z,100923.41
2023-06-06T05:17:19.510Z,100932.13
2023-06-06T05:19:46.862Z,100931.06
2023-06-06T05:22:17.542Z,100939.09
2023-06-06T05:24:44.897Z,100929.25
2023-06-06T05:27:12.926Z,100928.66
2023-06-06T05:29:39.537Z,100935.09
2023-06-06T05:32:07.072Z,100915.47
2023-06-06T05:34:34.334Z,100927.84
2023-06-06T05:37:02.272Z,100914.25
2023-06-06T05:39:29.716Z,100929.25
2023-06-06T05:41:56.483Z,100927.44
2023-06-06T05:44:24.045Z,100933.41
2023-06-06T05:46:56.210Z,100931.56
2023-06-06T05:49:24.223Z,100928.66
2023-06-06T05:51:51.210Z,100928.53
2023-06-06T05:54:18.376Z,100931.31
2023-06-06T05:56:45.565Z,100939.84
2023-06-06T05:59:12.244Z,100929.75
2023-06-06T06:01:41.055Z,100933.06
2023-06-06T06:04:09.554Z,100939.28
2023-06-06T06:06:38.540Z,100955.03
2023-06-06T06:09:06.412Z,100954.38
2023-06-06T06:11:33.311Z,100955.16
2023-06-06T06:14:00.021Z,100945.66
2023-06-06T06:16:27.454Z,100956.16
2023-06-06T06:18:54.165Z,100949.75
2023-06-06T06:21:22.550Z,100961.38
2023-06-06T06:23:52.964Z,100961.34
2023-06-06T06:26:19.608Z,100965.72
2023-06-06T06:28:46.334Z,100969.75
2023-06-06T06:31:13.623Z,100964.38
2023-06-06T06:33:40.505Z,100963.78
2023-06-06T06:36:07.577Z,100964.72
2023-06-06T06:38:34.355Z,100965.22
2023-06-06T06:41:01.034Z,100964.66
2023-06-06T06:43:27.624Z,100966.97
2023-06-06T06:45:54.486Z,100970.75
2023-06-06T06:48:21.129Z,100967.72
2023-06-06T06:50:47.745Z,100971.19
2023-06-06T06:53:14.769Z,100974.19
2023-06-06T06:55:42.436Z,100966.50
2023-06-06T06:58:09.335Z,100978.63
2023-06-06T07:00:36.066Z,100961.13
2023-06-06T07:03:06.328Z,100962.69
2023-06-06T07:05:33.800Z,100972.63
2023-06-06T07:08:01.193Z,100967.69
2023-06-06T07:10:30.243Z,100962.78
2023-06-06T07:12:57.460Z,100957.34
2023-06-06T07:15:25.478Z,100971.44
2023-06-06T07:17:52.286Z,100972.63
2023-06-06T07:20:22.891Z,100976.50
2023-06-06T07:22:51.710Z,100963.28
2023-06-06T07:25:18.355Z,100962.50
2023-06-06T07:27:44.980Z,100963.31
2023-06-06T07:30:15.546Z,100963.84
2023-06-06T07:32:48.269Z,100953.25
2023-06-06T07:35:17.701Z,100950.09
2023-06-06T07:37:44.423Z,100961.50
2023-06-06T07:40:12.741Z,100965.06
2023-06-06T07:42:42.683Z,100959.19
2023-06-06T07:45:10.275Z,100962.22
2023-06-06T07:50:04.357Z,100961.69
2023-06-06T07:52:34.515Z,100964.09
2023-06-06T07:55:02.132Z,100951.13
2023-06-06T07:57:29.043Z,100934.63
2023-06-06T07:59:55.797Z,100959.28
2023-06-06T08:02:22.716Z,100954.03
2023-06-06T08:04:49.409Z,100952.72
2023-06-06T08:07:16.578Z,100960.44
2023-06-06T08:09:44.420Z,100950.94
2023-06-06T08:12:11.927Z,100947.66
2023-06-06T08:14:39.405Z,100954.28
2023-06-06T08:17:06.978Z,100942.38
2023-06-06T08:19:34.066Z,100952.63
2023-06-06T08:22:02.880Z,100941.88
2023-06-06T08:24:30.236Z,100951.34
2023-06-06T08:26:57.833Z,100960.59
2023-06-06T08:29:24.475Z,100960.06
2023-06-06T08:31:51.970Z,100957.56
2023-06-06T08:34:18.704Z,100951.00
2023-06-06T08:36:45.576Z,100960.94
2023-06-06T08:39:12.304Z,100965.06
2023-06-06T08:41:49.256Z,100969.28
2023-06-06T08:44:15.832Z,100960.44
2023-06-06T08:46:43.644Z,100965.06
2023-06-06T08:49:11.613Z,100960.94
2023-06-06T08:51:38.376Z,100960.59
2023-06-06T08:54:05.872Z,100956.50
2023-06-06T08:56:32.469Z,100955.88
2023-06-06T08:58:59.558Z,100955.91
2023-06-06T09:01:27.503Z,100954.56
2023-06-06T09:03:54.692Z,100955.88
2023-06-06T09:06:22.202Z,100961.66
2023-06-06T09:08:51.771Z,100973.00
2023-06-06T09:11:19.048Z,100962.41
2023-06-06T09:13:46.628Z,100965.81
2023-06-06T09:16:15.533Z,100964.63
2023-06-06T09:18:42.853Z,100957.34
2023-06-06T09:21:10.013Z,100952.28
2023-06-06T09:23:37.272Z,100951.75
2023-06-06T09:26:04.262Z,100950.34
2023-06-06T09:28:41.544Z,100949.63
2023-06-06T09:31:27.525Z,100940.31
2023-06-06T09:33:55.888Z,100943.06
2023-06-06T09:36:24.152Z,100936.72
2023-06-06T09:38:55.153Z,100925.50
2023-06-06T09:41:22.733Z,100934.06
2023-06-06T09:43:49.615Z,100926.13
2023-06-06T09:46:18.419Z,100933.50
2023-06-06T09:48:59.608Z,100931.25
2023-06-06T09:51:26.432Z,100924.31
2023-06-06T09:53:53.514Z,100892.72
2023-06-06T09:56:24.469Z,100918.56
2023-06-06T09:58:57.981Z,100920.41
2023-06-06T10:01:34.185Z,100926.13
2023-06-06T10:04:01.796Z,100909.50
2023-06-06T10:06:35.193Z,100912.56
2023-06-06T10:09:08.392Z,100918.13
2023-06-06T10:11:36.144Z,100918.38
2023-06-06T10:14:04.629Z,100912.06
2023-06-06T10:16:32.678Z,100909.22
2023-06-06T10:18:59.887Z,100906.72
2023-06-06T10:21:28.464Z,100907.47
2023-06-06T10:23:56.027Z,100919.84
2023-06-06T10:26:27.991Z,100911.78
2023-06-06T10:29:04.923Z,100914.78
2023-06-06T10:31:41.913Z,100910.53
2023-06-06T10:34:14.323Z,100909.75
2023-06-06T10:36:44.959Z,100898.88
2023-06-06T10:39:32.920Z,100909.22
2023-06-06T10:42:08.221Z,100874.91
2023-06-06T10:44:38.838Z,100903.91
2023-06-06T10:47:32.375Z,100903.00
2023-06-06T10:50:17.060Z,100902.47
2023-06-06T10:52:51.799Z,100899.91
2023-06-06T10:55:45.289Z,100894.13
2023-06-06T10:58:40.779Z,100895.91
2023-06-06T11:01:07.871Z,100882.19
2023-06-06T11:03:37.078Z,100882.38
2023-06-06T11:06:15.819Z,100886.16
2023-06-06T11:08:46.682Z,100887.81
2023-06-06T11:11:30.513Z,100889.25
2023-06-06T11:13:58.312Z,100884.75
2023-06-06T11:17:01.371Z,100880.97
2023-06-06T11:19:32.429Z,100888.59
2023-06-06T11:22:00.460Z,100880.69
2023-06-06T11:24:33.809Z,100877.28
2023-06-06T11:27:01.171Z,100878.69
2023-06-06T11:29:28.412Z,100878.28
2023-06-06T11:31:55.042Z,100868.41
2023-06-06T11:34:25.465Z,100876.84
2023-06-06T11:36:53.022Z,100870.88
2023-06-06T11:39:21.962Z,100873.78
2023-06-06T11:41:51.114Z,100874.16
2023-06-06T11:44:19.122Z,100864.53
2023-06-06T11:46:46.338Z,100865.88
2023-06-06T11:49:12.993Z,100872.25
2023-06-06T11:51:39.619Z,100858.50
2023-06-06T11:54:12.921Z,100860.66
2023-06-06T11:56:40.812Z,100868.59
2023-06-06T11:59:09.714Z,100865.16
2023-06-06T12:01:36.777Z,100862.81
2023-06-06T12:04:07.422Z,100866.72
2023-06-06T12:06:34.670Z,100856.47
2023-06-06T12:09:02.060Z,100868.38
2023-06-06T12:11:31.114Z,100857.94
2023-06-06T12:13:58.483Z,100850.59
2023-06-06T12:16:28.513Z,100860.59
2023-06-06T12:18:58.538Z,100856.34
2023-06-06T12:21:25.165Z,100843.28
2023-06-06T12:23:52.022Z,100870.91
2023-06-06T12:26:19.691Z,100865.44
2023-06-06T12:28:59.428Z,100868.28
2023-06-06T12:31:35.590Z,100857.88
2023-06-06T12:34:03.199Z,100853.28
2023-06-06T12:36:29.839Z,100853.94
2023-06-06T12:39:04.747Z,100846.53
2023-06-06T12:41:42.282Z,100852.81
2023-06-06T12:44:13.656Z,100861.97
2023-06-06T12:46:41.624Z,100848.41
2023-06-06T12:49:08.497Z,100859.47
2023-06-06T12:51:40.685Z,100844.59
2023-06-06T12:54:07.560Z,100844.53
2023-06-06T12:56:34.152Z,100855.75
2023-06-06T12:59:01.437Z,100841.81
2023-06-06T13:01:29.637Z,100840.47
2023-06-06T13:03:56.386Z,100847.53
2023-06-06T13:06:23.308Z,100819.38
2023-06-06T13:08:50.079Z,100841.84
2023-06-06T13:11:16.732Z,100849.25
2023-06-06T13:13:43.374Z,100837.41
2023-06-06T13:16:10.094Z,100838.13
2023-06-06T13:18:38.676Z,100829.75
2023-06-06T13:21:05.432Z,100829.59
2023-06-06T13:23:34.852Z,100831.28
2023-06-06T13:26:01.671Z,100832.28
2023-06-06T13:28:28.272Z,100829.63
2023-06-06T13:30:54.962Z,100830.97
2023-06-06T13:33:21.816Z,100834.09
2023-06-06T13:35:49.967Z,100822.75
2023-06-06T13:38:18.092Z,100830.19
2023-06-06T13:40:44.775Z,100824.75
2023-06-06T13:43:13.085Z,100829.16
2023-06-06T13:45:41.904Z,100824.06
2023-06-06T13:48:08.867Z,100800.84
2023-06-06T13:50:36.330Z,100813.38
2023-06-06T13:53:04.701Z,100822.22
2023-06-06T13:55:32.776Z,100821.31
2023-06-06T13:58:04.161Z,100823.81
2023-06-06T14:00:35.548Z,100827.41
2023-06-06T14:03:02.460Z,100819.06
2023-06-06T14:05:29.779Z,100825.69
2023-06-06T14:07:56.672Z,100784.28
2023-06-06T14:10:23.348Z,100808.38
2023-06-06T14:12:50.130Z,100823.19
2023-06-06T14:15:17.250Z,100815.22
2023-06-06T14:17:43.948Z,100814.19
2023-06-06T14:20:13.279Z,100831.03
2023-06-06T14:22:44.336Z,100820.63
2023-06-06T14:25:11.415Z,100819.66
2023-06-06T14:27:39.377Z,100815.56
2023-06-06T14:30:07.764Z,100826.50
2023-06-06T14:32:35.932Z,100825.50
2023-06-06T14:35:05.085Z,100821.16
2023-06-06T14:37:31.928Z,100836.56
2023-06-06T14:40:00.055Z,100842.28
2023-06-06T14:42:27.530Z,100859.50
2023-06-06T14:44:56.724Z,100871.28
2023-06-06T14:47:23.883Z,100865.91
2023-06-06T14:49:50.716Z,100867.06
2023-06-06T14:52:17.648Z,100879.91
2023-06-06T14:54:44.623Z,100884.59
2023-06-06T14:57:12.337Z,100867.25
2023-06-06T14:59:40.048Z,100869.22
2023-06-06T15:02:07.461Z,100880.50
2023-06-06T15:04:36.220Z,100868.34
2023-06-06T15:07:05.196Z,100875.88
2023-06-06T15:09:32.711Z,100883.19
2023-06-06T15:11:59.752Z,100885.84
2023-06-06T15:14:27.129Z,100885.22
2023-06-06T15:16:58.271Z,100868.66
2023-06-06T15:19:25.027Z,100876.78
2023-06-06T15:21:51.922Z,100893.34
2023-06-06T15:24:25.316Z,100887.41
2023-06-06T15:26:58.861Z,100880.28
2023-06-06T15:29:25.864Z,100892.88
2023-06-06T15:31:54.982Z,100886.53
2023-06-06T15:34:22.328Z,100891.56
2023-06-06T15:36:49.360Z,100886.50
2023-06-06T15:39:16.066Z,100899.97
2023-06-06T15:41:42.693Z,100900.75
2023-06-06T15:44:11.417Z,100900.72
2023-06-06T15:46:40.865Z,100897.56
2023-06-06T15:49:08.343Z,100900.25
2023-06-06T15:51:39.303Z,100897.34
2023-06-06T15:54:06.822Z,100888.91
2023-06-06T15:56:33.499Z,100888.31
2023-06-06T15:59:01.226Z,100885.31
2023-06-06T16:01:28.750Z,100884.34
2023-06-06T16:03:55.897Z,100880.38
2023-06-06T16:06:25.630Z,100882.06
2023-06-06T16:08:52.896Z,100871.59
2023-06-06T16:11:20.840Z,100864.28
2023-06-06T16:13:47.425Z,100866.00
2023-06-06T16:16:15.088Z,100863.72
2023-06-06T16:18:41.953Z,100856.59
2023-06-06T16:21:09.602Z,100846.38
2023-06-06T16:23:36.899Z,100855.63
2023-06-06T16:26:03.593Z,100858.78
2023-06-06T16:28:30.187Z,100855.19
2023-06-06T16:30:57.128Z,100851.00
2023-06-06T16:33:23.747Z,100838.34
2023-06-06T16:35:50.379Z,100854.34
2023-06-06T16:38:16.947Z,100862.53
2023-06-06T16:40:43.557Z,100855.81
2023-06-06T16:43:10.238Z,100857.06
2023-06-06T16:45:37.050Z,100860.63
2023-06-06T16:48:07.154Z,100849.69
2023-06-06T16:50:34.086Z,100865.25
2023-06-06T16:53:00.745Z,100873.28
2023-06-06T16:55:27.482Z,100875.78
2023-06-06T16:57:54.221Z,100872.84
2023-06-06T17:00:21.965Z,100879.78
2023-06-06T17:02:49.556Z,100867.78
2023-06-06T17:05:17.180Z,100870.34
2023-06-06T17:07:43.776Z,100876.63
2023-06-06T17:10:13.800Z,100889.47
2023-06-06T17:12:40.495Z,100888.84
2023-06-06T17:15:07.955Z,100883.78
2023-06-06T17:17:34.564Z,100888.41
2023-06-06T17:20:01.456Z,100888.63
2023-06-06T17:22:28.300Z,100890.53
2023-06-06T17:24:57.657Z,100866.97
2023-06-06T17:27:24.348Z,100886.31
2023-06-06T17:29:50.986Z,100876.00
2023-06-06T17:32:17.702Z,100886.72
2023-06-06T17:34:44.684Z,100875.78
2023-06-06T17:37:11.417Z,100882.31
2023-06-06T17:39:38.035Z,100889.03
2023-06-06T17:42:05.207Z,100890.72
2023-06-06T17:44:31.946Z,100888.41
2023-06-06T17:46:58.587Z,100898.94
2023-06-06T17:49:25.298Z,100891.34
2023-06-06T17:51:51.912Z,100888.63
2023-06-06T17:54:18.535Z,100903.78
2023-06-06T17:56:45.082Z,100906.91
2023-06-06T17:59:12.319Z,100905.66
2023-06-06T18:01:38.900Z,100907.34
2023-06-06T18:04:06.222Z,100898.28
2023-06-06T18:06:33.125Z,100895.16
2023-06-06T18:09:00.037Z,100896.00
2023-06-06T18:11:27.055Z,100886.75
2023-06-06T18:13:53.905Z,100892.84
2023-06-06T18:16:20.570Z,100891.75
2023-06-06T18:18:48.961Z,100894.09
2023-06-06T18:21:17.026Z,100889.44
2023-06-06T18:23:43.780Z,100888.81
2023-06-06T18:26:11.737Z,100884.63
2023-06-06T18:28:38.314Z,100899.34
2023-06-06T18:31:04.990Z,100878.72
2023-06-06T18:33:31.824Z,100895.53
2023-06-06T18:35:58.530Z,100896.53
2023-06-06T18:38:25.218Z,100884.53
2023-06-06T18:40:51.887Z,100905.13
2023-06-06T18:43:19.127Z,100903.44
2023-06-06T18:45:49.382Z,100871.44
2023-06-06T18:48:16.586Z,100883.28
2023-06-06T18:50:46.751Z,100892.03
2023-06-06T18:53:13.474Z,100885.06
2023-06-06T18:55:41.516Z,100890.31
2023-06-06T18:58:08.530Z,100888.44
2023-06-06T19:00:35.168Z,100890.13
2023-06-06T19:03:01.940Z,100902.06
2023-06-06T19:05:28.604Z,100900.19
2023-06-06T19:07:55.734Z,100900.56
2023-06-06T19:10:22.604Z,100899.50
2023-06-06T19:12:49.851Z,100907.47
2023-06-06T19:15:16.781Z,100913.59
2023-06-06T19:17:43.620Z,100918.00
2023-06-06T19:20:11.224Z,100912.09
2023-06-06T19:22:37.905Z,100921.78
2023-06-06T19:25:05.044Z,100919.22
2023-06-06T19:27:31.785Z,100924.25
2023-06-06T19:29:58.464Z,100927.56
2023-06-06T19:32:25.288Z,100931.72
2023-06-06T19:34:52.379Z,100941.53
2023-06-06T19:37:19.026Z,100933.66
2023-06-06T19:39:48.230Z,100959.28
2023-06-06T19:42:15.764Z,100945.34
2023-06-06T19:44:42.545Z,100961.50
2023-06-06T19:47:09.204Z,100965.69
2023-06-06T19:49:36.097Z,100960.16
2023-06-06T19:52:03.678Z,100960.78
2023-06-06T19:54:30.365Z,100977.13
2023-06-06T19:56:57.154Z,100983.41
2023-06-06T19:59:23.795Z,100990.94
2023-06-06T20:01:50.679Z,100985.41
2023-06-06T20:04:17.470Z,100984.53
2023-06-06T20:06:44.301Z,100979.81
2023-06-06T20:09:10.923Z,100989.47
2023-06-06T20:11:37.504Z,100994.50
2023-06-06T20:14:04.217Z,100986.44
2023-06-06T20:16:30.885Z,101009.25
2023-06-06T20:18:57.572Z,101000.19
2023-06-06T20:21:24.316Z,101007.31
2023-06-06T20:23:52.014Z,100997.28
2023-06-06T20:26:18.759Z,100981.06
2023-06-06T20:28:45.463Z,100990.28
2023-06-06T20:31:14.531Z,100982.88
2023-06-06T20:33:42.060Z,101004.56
2023-06-06T20:36:09.341Z,101000.78
2023-06-06T20:38:35.994Z,100984.47
2023-06-06T20:41:02.847Z,100991.81
2023-06-06T20:43:29.714Z,101003.53
2023-06-06T20:45:56.488Z,101008.28
2023-06-06T20:48:23.303Z,100986.13
2023-06-06T20:50:50.562Z,100992.22
2023-06-06T20:53:17.308Z,101003.09
2023-06-06T20:55:44.135Z,100996.91
2023-06-06T20:58:17.898Z,100991.69
2023-06-06T21:00:46.624Z,101013.66
2023-06-06T21:03:14.525Z,100990.50
2023-06-06T21:05:41.421Z,101013.38
2023-06-06T21:08:09.131Z,101012.72
2023-06-06T21:10:35.857Z,101031.88
2023-06-06T21:13:02.754Z,101007.16
2023-06-06T21:15:29.586Z,101018.88
2023-06-06T21:17:57.412Z,101016.25
2023-06-06T21:20:24.175Z,101021.84
2023-06-06T21:22:51.129Z,101034.44
2023-06-06T21:25:17.810Z,101040.88
2023-06-06T21:27:44.477Z,101034.25
2023-06-06T21:30:11.579Z,101030.50
2023-06-06T21:32:42.191Z,101038.13
2023-06-06T21:35:09.160Z,101041.66
2023-06-06T21:37:35.839Z,101037.56
2023-06-06T21:40:02.570Z,101036.53
2023-06-06T21:42:29.440Z,101038.78
2023-06-06T21:44:58.020Z,101028.91
2023-06-06T21:47:24.808Z,101025.91
2023-06-06T21:49:52.751Z,101039.31
2023-06-06T21:52:19.361Z,101028.34
2023-06-06T21:54:46.038Z,101029.19
2023-06-06T21:57:12.663Z,101029.94
2023-06-06T21:59:39.327Z,101034.97
2023-06-06T22:02:06.156Z,101029.53
2023-06-06T22:04:32.746Z,101030.38
2023-06-06T22:07:03.864Z,101036.69
2023-06-06T22:09:31.534Z,101031.72
2023-06-06T22:11:58.128Z,101032.06
2023-06-06T22:14:24.698Z,101039.00
2023-06-06T22:16:51.376Z,101043.44
2023-06-06T22:19:19.092Z,101036.28
2023-06-06T22:21:45.769Z,101044.75
2023-06-06T22:24:12.396Z,101047.94
2023-06-06T22:26:39.062Z,101042.50
2023-06-06T22:29:07.230Z,101046.06
2023-06-06T22:31:34.402Z,101041.38
2023-06-06T22:34:01.149Z,101027.78
2023-06-06T22:36:27.781Z,101045.66
2023-06-06T22:38:54.431Z,101039.66
2023-06-06T22:41:21.086Z,101049.84
2023-06-06T22:43:47.779Z,101050.44
2023-06-06T22:46:14.423Z,101058.94
2023-06-06T22:48:41.075Z,101051.44
2023-06-06T22:51:08.190Z,101043.94
2023-06-06T22:53:34.866Z,101041.91
2023-06-06T22:56:01.516Z,101039.47
2023-06-06T23:04:59.541Z,101029.88
2023-06-06T23:07:26.143Z,101025.38
2023-06-06T23:09:53.038Z,101015.25
2023-06-06T23:12:19.605Z,101020.84
2023-06-06T23:14:46.210Z,101028.19
2023-06-06T23:17:12.992Z,101031.91
2023-06-06T23:19:39.749Z,101028.53
2023-06-06T23:22:06.570Z,101023.81
2023-06-06T23:24:33.267Z,101020.09
2023-06-06T23:26:59.908Z,101025.22
2023-06-06T23:29:26.481Z,101029.63
2023-06-06T23:31:53.260Z,101035.72
2023-06-06T23:34:19.999Z,101036.75
2023-06-06T23:36:48.921Z,101027.59
2023-06-06T23:39:15.652Z,101019.44
2023-06-06T23:41:42.514Z,101018.38
2023-06-06T23:44:09.078Z,101018.38
2023-06-06T23:46:35.725Z,101004.69
2023-06-06T23:49:02.407Z,101013.25
2023-06-06T23:51:29.483Z,101007.91
2023-06-06T23:53:56.195Z,101000.63
2023-06-06T23:56:22.877Z,100998.56
2023-06-06T23:58:49.575Z,100995.94
